sensor_id;sensor_type;location;lat;lon;timestamp;P1;durP1;ratioP1;P2;durP2;ratioP2
7917;SDS011;4004;42.624;23.386;2022-12-18T00:02:18;5.07;;;4.57;;
7917;SDS011;4004;42.624;23.386;2022-12-18T00:04:44;7.30;;;4.60;;
7917;SDS011;4004;42.624;23.386;2022-12-18T00:07:11;5.17;;;4.67;;
7917;SDS011;4004;42.624;23.386;2022-12-18T00:09:38;5.73;;;5.23;;
7917;SDS011;4004;42.624;23.386;2022-12-18T00:12:05;4.93;;;4.30;;
7917;SDS011;4004;42.624;23.386;2022-12-18T00:14:31;5.30;;;4.07;;
7917;SDS011;4004;42.624;23.386;2022-12-18T00:17:00;5.07;;;4.57;;
7917;SDS011;4004;42.624;23.386;2022-12-18T00:19:27;5.27;;;4.57;;
7917;SDS011;4004;42.624;23.386;2022-12-18T00:21:54;4.90;;;4.40;;
7917;SDS011;4004;42.624;23.386;2022-12-18T00:24:21;4.83;;;4.30;;
7917;SDS011;4004;42.624;23.386;2022-12-18T00:26:47;6.23;;;5.27;;
7917;SDS011;4004;42.624;23.386;2022-12-18T00:29:14;4.80;;;4.30;;
7917;SDS011;4004;42.624;23.386;2022-12-18T00:31:41;5.30;;;4.67;;
7917;SDS011;4004;42.624;23.386;2022-12-18T00:34:10;5.77;;;4.47;;
7917;SDS011;4004;42.624;23.386;2022-12-18T00:36:38;4.33;;;3.93;;
7917;SDS011;4004;42.624;23.386;2022-12-18T00:39:05;4.70;;;3.93;;
7917;SDS011;4004;42.624;23.386;2022-12-18T00:41:32;5.07;;;4.57;;
7917;SDS011;4004;42.624;23.386;2022-12-18T00:44:17;5.63;;;4.43;;
7917;SDS011;4004;42.624;23.386;2022-12-18T00:46:45;6.00;;;4.80;;
7917;SDS011;4004;42.624;23.386;2022-12-18T00:49:14;5.73;;;5.10;;
7917;SDS011;4004;42.624;23.386;2022-12-18T00:51:41;5.43;;;4.93;;
7917;SDS011;4004;42.624;23.386;2022-12-18T00:54:08;5.80;;;5.30;;
7917;SDS011;4004;42.624;23.386;2022-12-18T00:56:35;6.60;;;5.50;;
7917;SDS011;4004;42.624;23.386;2022-12-18T00:59:03;6.33;;;5.47;;
7917;SDS011;4004;42.624;23.386;2022-12-18T01:01:30;6.67;;;5.07;;
7917;SDS011;4004;42.624;23.386;2022-12-18T01:03:57;5.93;;;5.33;;
7917;SDS011;4004;42.624;23.386;2022-12-18T01:06:26;6.43;;;5.83;;
7917;SDS011;4004;42.624;23.386;2022-12-18T01:08:53;6.23;;;5.50;;
7917;SDS011;4004;42.624;23.386;2022-12-18T01:11:20;9.40;;;5.70;;
7917;SDS011;4004;42.624;23.386;2022-12-18T01:13:47;7.47;;;6.27;;
7917;SDS011;4004;42.624;23.386;2022-12-18T01:16:14;7.07;;;5.90;;
7917;SDS011;4004;42.624;23.386;2022-12-18T01:18:43;7.03;;;6.20;;
7917;SDS011;4004;42.624;23.386;2022-12-18T01:21:10;7.60;;;6.17;;
7917;SDS011;4004;42.624;23.386;2022-12-18T01:23:40;7.50;;;6.63;;
7917;SDS011;4004;42.624;23.386;2022-12-18T01:26:07;7.23;;;6.33;;
7917;SDS011;4004;42.624;23.386;2022-12-18T01:28:36;8.43;;;6.50;;
7917;SDS011;4004;42.624;23.386;2022-12-18T01:31:13;6.70;;;6.00;;
7917;SDS011;4004;42.624;23.386;2022-12-18T01:33:42;7.30;;;5.90;;
7917;SDS011;4004;42.624;23.386;2022-12-18T01:36:14;7.33;;;6.10;;
7917;SDS011;4004;42.624;23.386;2022-12-18T01:38:43;6.87;;;6.07;;
7917;SDS011;4004;42.624;23.386;2022-12-18T01:41:12;7.30;;;5.50;;
7917;SDS011;4004;42.624;23.386;2022-12-18T01:43:47;7.27;;;6.57;;
7917;SDS011;4004;42.624;23.386;2022-12-18T01:46:15;6.70;;;5.90;;
7917;SDS011;4004;42.624;23.386;2022-12-18T01:48:44;6.33;;;5.73;;
7917;SDS011;4004;42.624;23.386;2022-12-18T01:51:13;6.23;;;5.57;;
7917;SDS011;4004;42.624;23.386;2022-12-18T01:53:41;6.97;;;5.77;;
7917;SDS011;4004;42.624;23.386;2022-12-18T01:56:13;7.57;;;5.83;;
7917;SDS011;4004;42.624;23.386;2022-12-18T01:58:48;7.23;;;6.53;;
7917;SDS011;4004;42.624;23.386;2022-12-18T02:01:20;7.23;;;6.53;;
7917;SDS011;4004;42.624;23.386;2022-12-18T02:03:48;7.33;;;6.37;;
7917;SDS011;4004;42.624;23.386;2022-12-18T02:06:17;7.27;;;6.50;;
7917;SDS011;4004;42.624;23.386;2022-12-18T02:08:49;6.73;;;6.03;;
7917;SDS011;4004;42.624;23.386;2022-12-18T02:11:28;7.03;;;6.20;;
7917;SDS011;4004;42.624;23.386;2022-12-18T02:14:07;7.47;;;6.57;;
7917;SDS011;4004;42.624;23.386;2022-12-18T02:16:44;6.73;;;6.10;;
7917;SDS011;4004;42.624;23.386;2022-12-18T02:19:21;8.23;;;6.93;;
7917;SDS011;4004;42.624;23.386;2022-12-18T02:22:05;9.70;;;7.57;;
7917;SDS011;4004;42.624;23.386;2022-12-18T02:24:40;7.37;;;6.67;;
7917;SDS011;4004;42.624;23.386;2022-12-18T02:27:12;7.47;;;6.67;;
7917;SDS011;4004;42.624;23.386;2022-12-18T02:29:40;7.90;;;7.10;;
7917;SDS011;4004;42.624;23.386;2022-12-18T02:32:14;8.83;;;7.53;;
7917;SDS011;4004;42.624;23.386;2022-12-18T02:34:44;8.53;;;7.73;;
7917;SDS011;4004;42.624;23.386;2022-12-18T02:37:13;9.73;;;7.67;;
7917;SDS011;4004;42.624;23.386;2022-12-18T02:39:43;11.60;;;7.33;;
7917;SDS011;4004;42.624;23.386;2022-12-18T02:42:14;9.20;;;7.83;;
7917;SDS011;4004;42.624;23.386;2022-12-18T02:44:43;8.23;;;7.43;;
7917;SDS011;4004;42.624;23.386;2022-12-18T02:47:12;8.50;;;7.63;;
7917;SDS011;4004;42.624;23.386;2022-12-18T02:49:42;9.70;;;7.93;;
7917;SDS011;4004;42.624;23.386;2022-12-18T02:52:20;11.00;;;7.93;;
7917;SDS011;4004;42.624;23.386;2022-12-18T02:54:56;10.03;;;7.20;;
7917;SDS011;4004;42.624;23.386;2022-12-18T02:57:34;8.87;;;7.73;;
7917;SDS011;4004;42.624;23.386;2022-12-18T03:00:08;9.53;;;7.40;;
7917;SDS011;4004;42.624;23.386;2022-12-18T03:02:39;8.50;;;7.60;;
7917;SDS011;4004;42.624;23.386;2022-12-18T03:05:13;8.10;;;7.27;;
7917;SDS011;4004;42.624;23.386;2022-12-18T03:07:44;9.00;;;7.33;;
7917;SDS011;4004;42.624;23.386;2022-12-18T03:10:16;7.90;;;7.10;;
7917;SDS011;4004;42.624;23.386;2022-12-18T03:12:50;7.20;;;6.50;;
7917;SDS011;4004;42.624;23.386;2022-12-18T03:15:21;7.03;;;6.17;;
7917;SDS011;4004;42.624;23.386;2022-12-18T03:17:55;8.47;;;6.70;;
7917;SDS011;4004;42.624;23.386;2022-12-18T03:20:25;9.13;;;7.27;;
7917;SDS011;4004;42.624;23.386;2022-12-18T03:23:02;8.67;;;6.70;;
7917;SDS011;4004;42.624;23.386;2022-12-18T03:25:34;8.87;;;7.40;;
7917;SDS011;4004;42.624;23.386;2022-12-18T03:28:06;7.10;;;6.27;;
7917;SDS011;4004;42.624;23.386;2022-12-18T03:30:37;8.70;;;7.00;;
7917;SDS011;4004;42.624;23.386;2022-12-18T03:33:08;7.50;;;6.43;;
7917;SDS011;4004;42.624;23.386;2022-12-18T03:35:38;9.57;;;6.87;;
7917;SDS011;4004;42.624;23.386;2022-12-18T03:38:08;7.27;;;6.57;;
7917;SDS011;4004;42.624;23.386;2022-12-18T03:40:39;7.93;;;6.50;;
7917;SDS011;4004;42.624;23.386;2022-12-18T03:43:15;7.70;;;6.90;;
7917;SDS011;4004;42.624;23.386;2022-12-18T03:45:48;7.90;;;6.07;;
7917;SDS011;4004;42.624;23.386;2022-12-18T03:48:19;9.30;;;7.27;;
7917;SDS011;4004;42.624;23.386;2022-12-18T03:50:52;9.80;;;7.13;;
7917;SDS011;4004;42.624;23.386;2022-12-18T03:53:25;7.17;;;6.23;;
7917;SDS011;4004;42.624;23.386;2022-12-18T03:56:01;7.43;;;6.27;;
7917;SDS011;4004;42.624;23.386;2022-12-18T03:58:31;6.50;;;5.90;;
7917;SDS011;4004;42.624;23.386;2022-12-18T04:01:01;6.87;;;5.70;;
7917;SDS011;4004;42.624;23.386;2022-12-18T04:03:34;7.23;;;5.93;;
7917;SDS011;4004;42.624;23.386;2022-12-18T04:06:02;6.87;;;5.50;;
7917;SDS011;4004;42.624;23.386;2022-12-18T04:08:31;6.57;;;5.87;;
7917;SDS011;4004;42.624;23.386;2022-12-18T04:11:00;7.63;;;5.77;;
7917;SDS011;4004;42.624;23.386;2022-12-18T04:13:28;7.10;;;5.97;;
7917;SDS011;4004;42.624;23.386;2022-12-18T04:15:57;8.57;;;6.50;;
7917;SDS011;4004;42.624;23.386;2022-12-18T04:18:24;6.40;;;5.60;;
7917;SDS011;4004;42.624;23.386;2022-12-18T04:20:50;6.90;;;5.90;;
7917;SDS011;4004;42.624;23.386;2022-12-18T04:23:17;6.73;;;5.80;;
7917;SDS011;4004;42.624;23.386;2022-12-18T04:25:44;6.23;;;5.40;;
7917;SDS011;4004;42.624;23.386;2022-12-18T04:28:12;7.53;;;5.50;;
7917;SDS011;4004;42.624;23.386;2022-12-18T04:30:39;8.50;;;5.90;;
7917;SDS011;4004;42.624;23.386;2022-12-18T04:33:09;6.73;;;5.63;;
7917;SDS011;4004;42.624;23.386;2022-12-18T04:35:36;7.10;;;6.03;;
7917;SDS011;4004;42.624;23.386;2022-12-18T04:38:03;7.23;;;6.27;;
7917;SDS011;4004;42.624;23.386;2022-12-18T04:40:30;7.70;;;6.37;;
7917;SDS011;4004;42.624;23.386;2022-12-18T04:42:56;6.87;;;5.60;;
7917;SDS011;4004;42.624;23.386;2022-12-18T04:45:23;7.83;;;5.77;;
7917;SDS011;4004;42.624;23.386;2022-12-18T04:47:50;7.70;;;6.27;;
7917;SDS011;4004;42.624;23.386;2022-12-18T04:50:18;9.03;;;6.60;;
7917;SDS011;4004;42.624;23.386;2022-12-18T04:52:44;9.20;;;6.50;;
7917;SDS011;4004;42.624;23.386;2022-12-18T04:55:11;8.57;;;6.87;;
7917;SDS011;4004;42.624;23.386;2022-12-18T04:57:38;7.80;;;6.43;;
7917;SDS011;4004;42.624;23.386;2022-12-18T05:00:05;8.10;;;7.20;;
7917;SDS011;4004;42.624;23.386;2022-12-18T05:02:33;7.50;;;6.53;;
7917;SDS011;4004;42.624;23.386;2022-12-18T05:04:59;13.63;;;8.20;;
7917;SDS011;4004;42.624;23.386;2022-12-18T05:07:28;8.57;;;7.07;;
7917;SDS011;4004;42.624;23.386;2022-12-18T05:09:54;9.43;;;7.33;;
7917;SDS011;4004;42.624;23.386;2022-12-18T05:12:21;9.53;;;6.90;;
7917;SDS011;4004;42.624;23.386;2022-12-18T05:14:48;10.47;;;7.90;;
7917;SDS011;4004;42.624;23.386;2022-12-18T05:17:14;8.93;;;7.87;;
7917;SDS011;4004;42.624;23.386;2022-12-18T05:19:41;11.03;;;8.20;;
7917;SDS011;4004;42.624;23.386;2022-12-18T05:22:08;13.80;;;8.90;;
7917;SDS011;4004;42.624;23.386;2022-12-18T05:24:37;10.50;;;7.50;;
7917;SDS011;4004;42.624;23.386;2022-12-18T05:27:04;10.73;;;8.23;;
7917;SDS011;4004;42.624;23.386;2022-12-18T05:29:30;11.47;;;8.03;;
7917;SDS011;4004;42.624;23.386;2022-12-18T05:31:57;9.17;;;7.77;;
7917;SDS011;4004;42.624;23.386;2022-12-18T05:34:24;11.90;;;9.50;;
7917;SDS011;4004;42.624;23.386;2022-12-18T05:36:50;14.67;;;11.20;;
7917;SDS011;4004;42.624;23.386;2022-12-18T05:39:17;11.50;;;8.77;;
7917;SDS011;4004;42.624;23.386;2022-12-18T05:41:45;10.57;;;8.60;;
7917;SDS011;4004;42.624;23.386;2022-12-18T05:44:12;11.10;;;9.03;;
7917;SDS011;4004;42.624;23.386;2022-12-18T05:46:39;9.37;;;8.30;;
7917;SDS011;4004;42.624;23.386;2022-12-18T05:49:05;12.13;;;8.87;;
7917;SDS011;4004;42.624;23.386;2022-12-18T05:51:32;10.80;;;8.13;;
7917;SDS011;4004;42.624;23.386;2022-12-18T05:53:59;11.50;;;8.27;;
7917;SDS011;4004;42.624;23.386;2022-12-18T05:56:25;14.03;;;8.90;;
7917;SDS011;4004;42.624;23.386;2022-12-18T05:58:53;9.70;;;7.83;;
7917;SDS011;4004;42.624;23.386;2022-12-18T06:01:22;12.23;;;8.80;;
7917;SDS011;4004;42.624;23.386;2022-12-18T06:03:50;13.67;;;8.13;;
7917;SDS011;4004;42.624;23.386;2022-12-18T06:06:17;10.93;;;8.73;;
7917;SDS011;4004;42.624;23.386;2022-12-18T06:08:45;10.70;;;8.07;;
7917;SDS011;4004;42.624;23.386;2022-12-18T06:11:13;11.30;;;8.90;;
7917;SDS011;4004;42.624;23.386;2022-12-18T06:13:42;14.40;;;9.87;;
7917;SDS011;4004;42.624;23.386;2022-12-18T06:16:10;11.67;;;9.17;;
7917;SDS011;4004;42.624;23.386;2022-12-18T06:18:37;14.73;;;10.23;;
7917;SDS011;4004;42.624;23.386;2022-12-18T06:21:04;14.47;;;10.37;;
7917;SDS011;4004;42.624;23.386;2022-12-18T06:23:31;11.47;;;8.80;;
7917;SDS011;4004;42.624;23.386;2022-12-18T06:25:58;13.83;;;10.53;;
7917;SDS011;4004;42.624;23.386;2022-12-18T06:28:25;11.90;;;9.67;;
7917;SDS011;4004;42.624;23.386;2022-12-18T06:30:51;17.10;;;10.57;;
7917;SDS011;4004;42.624;23.386;2022-12-18T06:33:20;14.57;;;10.43;;
7917;SDS011;4004;42.624;23.386;2022-12-18T06:35:46;15.03;;;10.97;;
7917;SDS011;4004;42.624;23.386;2022-12-18T06:38:13;11.40;;;9.30;;
7917;SDS011;4004;42.624;23.386;2022-12-18T06:40:40;14.00;;;10.07;;
7917;SDS011;4004;42.624;23.386;2022-12-18T06:43:06;13.47;;;9.87;;
7917;SDS011;4004;42.624;23.386;2022-12-18T06:45:33;11.80;;;9.47;;
7917;SDS011;4004;42.624;23.386;2022-12-18T06:48:00;12.93;;;10.07;;
7917;SDS011;4004;42.624;23.386;2022-12-18T06:50:29;14.33;;;10.90;;
7917;SDS011;4004;42.624;23.386;2022-12-18T06:52:55;12.90;;;10.00;;
7917;SDS011;4004;42.624;23.386;2022-12-18T06:55:22;13.83;;;10.37;;
7917;SDS011;4004;42.624;23.386;2022-12-18T06:57:49;13.23;;;10.27;;
7917;SDS011;4004;42.624;23.386;2022-12-18T07:00:16;13.10;;;9.97;;
7917;SDS011;4004;42.624;23.386;2022-12-18T07:02:43;12.80;;;10.27;;
7917;SDS011;4004;42.624;23.386;2022-12-18T07:05:09;14.53;;;10.30;;
7917;SDS011;4004;42.624;23.386;2022-12-18T07:07:37;14.23;;;10.50;;
7917;SDS011;4004;42.624;23.386;2022-12-18T07:10:04;13.37;;;10.60;;
7917;SDS011;4004;42.624;23.386;2022-12-18T07:12:31;15.00;;;9.57;;
7917;SDS011;4004;42.624;23.386;2022-12-18T07:14:58;12.40;;;10.07;;
7917;SDS011;4004;42.624;23.386;2022-12-18T07:17:25;23.53;;;10.60;;
7917;SDS011;4004;42.624;23.386;2022-12-18T07:19:52;15.63;;;11.20;;
7917;SDS011;4004;42.624;23.386;2022-12-18T07:22:18;12.00;;;9.83;;
7917;SDS011;4004;42.624;23.386;2022-12-18T07:24:46;13.53;;;9.30;;
7917;SDS011;4004;42.624;23.386;2022-12-18T07:27:13;12.67;;;9.50;;
7917;SDS011;4004;42.624;23.386;2022-12-18T07:29:40;13.80;;;10.63;;
7917;SDS011;4004;42.624;23.386;2022-12-18T07:32:07;16.00;;;10.83;;
7917;SDS011;4004;42.624;23.386;2022-12-18T07:34:33;13.67;;;10.47;;
7917;SDS011;4004;42.624;23.386;2022-12-18T07:37:00;14.97;;;10.80;;
7917;SDS011;4004;42.624;23.386;2022-12-18T07:39:27;13.77;;;10.97;;
7917;SDS011;4004;42.624;23.386;2022-12-18T07:41:55;14.70;;;11.33;;
7917;SDS011;4004;42.624;23.386;2022-12-18T07:44:40;15.67;;;11.57;;
7917;SDS011;4004;42.624;23.386;2022-12-18T07:47:06;13.50;;;10.23;;
7917;SDS011;4004;42.624;23.386;2022-12-18T07:49:33;15.93;;;11.23;;
7917;SDS011;4004;42.624;23.386;2022-12-18T07:52:00;13.33;;;10.50;;
7917;SDS011;4004;42.624;23.386;2022-12-18T07:54:26;13.63;;;10.33;;
7917;SDS011;4004;42.624;23.386;2022-12-18T07:56:53;14.10;;;10.80;;
7917;SDS011;4004;42.624;23.386;2022-12-18T07:59:21;15.00;;;10.93;;
7917;SDS011;4004;42.624;23.386;2022-12-18T08:01:48;13.87;;;10.00;;
7917;SDS011;4004;42.624;23.386;2022-12-18T08:04:15;13.87;;;10.90;;
7917;SDS011;4004;42.624;23.386;2022-12-18T08:06:42;12.93;;;10.37;;
7917;SDS011;4004;42.624;23.386;2022-12-18T08:09:09;13.33;;;10.33;;
7917;SDS011;4004;42.624;23.386;2022-12-18T08:11:36;13.40;;;10.57;;
7917;SDS011;4004;42.624;23.386;2022-12-18T08:14:03;18.67;;;11.63;;
7917;SDS011;4004;42.624;23.386;2022-12-18T08:16:31;17.10;;;11.03;;
7917;SDS011;4004;42.624;23.386;2022-12-18T08:18:58;12.53;;;10.90;;
7917;SDS011;4004;42.624;23.386;2022-12-18T08:21:25;14.27;;;11.07;;
7917;SDS011;4004;42.624;23.386;2022-12-18T08:23:54;13.63;;;10.83;;
7917;SDS011;4004;42.624;23.386;2022-12-18T08:26:24;16.23;;;11.10;;
7917;SDS011;4004;42.624;23.386;2022-12-18T08:28:53;13.30;;;10.77;;
7917;SDS011;4004;42.624;23.386;2022-12-18T08:31:20;15.60;;;11.03;;
7917;SDS011;4004;42.624;23.386;2022-12-18T08:33:49;15.93;;;12.53;;
7917;SDS011;4004;42.624;23.386;2022-12-18T08:36:17;17.27;;;12.00;;
7917;SDS011;4004;42.624;23.386;2022-12-18T08:38:44;17.17;;;12.60;;
7917;SDS011;4004;42.624;23.386;2022-12-18T08:41:12;17.80;;;13.03;;
7917;SDS011;4004;42.624;23.386;2022-12-18T08:43:40;15.87;;;12.07;;
7917;SDS011;4004;42.624;23.386;2022-12-18T08:46:25;16.67;;;12.03;;
7917;SDS011;4004;42.624;23.386;2022-12-18T08:48:54;17.67;;;13.07;;
7917;SDS011;4004;42.624;23.386;2022-12-18T08:51:21;17.30;;;13.17;;
7917;SDS011;4004;42.624;23.386;2022-12-18T08:53:48;14.80;;;12.27;;
7917;SDS011;4004;42.624;23.386;2022-12-18T08:56:15;15.67;;;12.87;;
7917;SDS011;4004;42.624;23.386;2022-12-18T08:58:42;15.97;;;12.20;;
7917;SDS011;4004;42.624;23.386;2022-12-18T09:01:10;17.57;;;13.23;;
7917;SDS011;4004;42.624;23.386;2022-12-18T09:03:38;17.47;;;12.10;;
7917;SDS011;4004;42.624;23.386;2022-12-18T09:06:07;18.07;;;13.17;;
7917;SDS011;4004;42.624;23.386;2022-12-18T09:08:34;15.07;;;11.67;;
7917;SDS011;4004;42.624;23.386;2022-12-18T09:11:01;17.60;;;12.37;;
7917;SDS011;4004;42.624;23.386;2022-12-18T09:13:28;18.40;;;12.43;;
7917;SDS011;4004;42.624;23.386;2022-12-18T09:15:55;21.50;;;14.07;;
7917;SDS011;4004;42.624;23.386;2022-12-18T09:18:22;20.13;;;13.67;;
7917;SDS011;4004;42.624;23.386;2022-12-18T09:20:50;17.07;;;13.23;;
7917;SDS011;4004;42.624;23.386;2022-12-18T09:23:19;17.27;;;13.87;;
7917;SDS011;4004;42.624;23.386;2022-12-18T09:25:47;21.00;;;14.67;;
7917;SDS011;4004;42.624;23.386;2022-12-18T09:28:14;22.57;;;14.20;;
7917;SDS011;4004;42.624;23.386;2022-12-18T09:30:43;21.87;;;14.10;;
7917;SDS011;4004;42.624;23.386;2022-12-18T09:33:11;21.20;;;14.50;;
7917;SDS011;4004;42.624;23.386;2022-12-18T09:35:38;21.67;;;13.87;;
7917;SDS011;4004;42.624;23.386;2022-12-18T09:38:05;17.80;;;13.40;;
7917;SDS011;4004;42.624;23.386;2022-12-18T09:40:35;18.27;;;13.93;;
7917;SDS011;4004;42.624;23.386;2022-12-18T09:43:06;18.83;;;12.93;;
7917;SDS011;4004;42.624;23.386;2022-12-18T09:45:42;20.40;;;12.57;;
7917;SDS011;4004;42.624;23.386;2022-12-18T09:48:11;16.03;;;12.30;;
7917;SDS011;4004;42.624;23.386;2022-12-18T09:50:45;17.53;;;12.77;;
7917;SDS011;4004;42.624;23.386;2022-12-18T09:53:15;23.63;;;13.07;;
7917;SDS011;4004;42.624;23.386;2022-12-18T09:55:48;16.83;;;12.70;;
7917;SDS011;4004;42.624;23.386;2022-12-18T09:58:17;17.70;;;12.97;;
7917;SDS011;4004;42.624;23.386;2022-12-18T10:00:50;17.97;;;13.03;;
7917;SDS011;4004;42.624;23.386;2022-12-18T10:03:17;17.07;;;12.67;;
7917;SDS011;4004;42.624;23.386;2022-12-18T10:05:46;23.67;;;12.60;;
7917;SDS011;4004;42.624;23.386;2022-12-18T10:08:22;17.13;;;12.77;;
7917;SDS011;4004;42.624;23.386;2022-12-18T10:10:56;19.27;;;12.97;;
7917;SDS011;4004;42.624;23.386;2022-12-18T10:13:28;20.70;;;13.17;;
7917;SDS011;4004;42.624;23.386;2022-12-18T10:16:03;20.93;;;12.23;;
7917;SDS011;4004;42.624;23.386;2022-12-18T10:18:44;16.93;;;12.47;;
7917;SDS011;4004;42.624;23.386;2022-12-18T10:21:25;18.37;;;11.47;;
7917;SDS011;4004;42.624;23.386;2022-12-18T10:23:58;17.43;;;12.37;;
7917;SDS011;4004;42.624;23.386;2022-12-18T10:26:36;19.07;;;13.10;;
7917;SDS011;4004;42.624;23.386;2022-12-18T10:29:04;18.90;;;11.97;;
7917;SDS011;4004;42.624;23.386;2022-12-18T10:31:36;20.40;;;14.03;;
7917;SDS011;4004;42.624;23.386;2022-12-18T10:34:03;16.27;;;11.93;;
7917;SDS011;4004;42.624;23.386;2022-12-18T10:36:30;16.20;;;11.10;;
7917;SDS011;4004;42.624;23.386;2022-12-18T10:38:59;16.83;;;12.07;;
7917;SDS011;4004;42.624;23.386;2022-12-18T10:41:42;14.93;;;11.73;;
7917;SDS011;4004;42.624;23.386;2022-12-18T10:44:14;16.33;;;12.20;;
7917;SDS011;4004;42.624;23.386;2022-12-18T10:46:43;18.40;;;12.07;;
7917;SDS011;4004;42.624;23.386;2022-12-18T10:49:18;16.93;;;11.43;;
7917;SDS011;4004;42.624;23.386;2022-12-18T10:51:48;15.63;;;12.10;;
7917;SDS011;4004;42.624;23.386;2022-12-18T10:54:16;18.57;;;12.47;;
7917;SDS011;4004;42.624;23.386;2022-12-18T10:56:45;18.00;;;13.33;;
7917;SDS011;4004;42.624;23.386;2022-12-18T10:59:13;18.80;;;13.43;;
7917;SDS011;4004;42.624;23.386;2022-12-18T11:01:48;19.17;;;13.70;;
7917;SDS011;4004;42.624;23.386;2022-12-18T11:04:17;18.30;;;12.70;;
7917;SDS011;4004;42.624;23.386;2022-12-18T11:06:56;16.57;;;12.77;;
7917;SDS011;4004;42.624;23.386;2022-12-18T11:09:25;17.67;;;12.27;;
7917;SDS011;4004;42.624;23.386;2022-12-18T11:11:58;18.03;;;13.33;;
7917;SDS011;4004;42.624;23.386;2022-12-18T11:14:27;18.93;;;12.97;;
7917;SDS011;4004;42.624;23.386;2022-12-18T11:16:55;15.53;;;11.90;;
7917;SDS011;4004;42.624;23.386;2022-12-18T11:19:32;17.17;;;12.70;;
7917;SDS011;4004;42.624;23.386;2022-12-18T11:22:00;16.33;;;11.73;;
7917;SDS011;4004;42.624;23.386;2022-12-18T11:24:30;15.63;;;11.13;;
7917;SDS011;4004;42.624;23.386;2022-12-18T11:27:01;16.20;;;11.33;;
7917;SDS011;4004;42.624;23.386;2022-12-18T11:29:34;20.90;;;13.07;;
7917;SDS011;4004;42.624;23.386;2022-12-18T11:32:12;19.60;;;11.77;;
7917;SDS011;4004;42.624;23.386;2022-12-18T11:34:49;21.10;;;11.93;;
7917;SDS011;4004;42.624;23.386;2022-12-18T11:37:20;17.80;;;11.63;;
7917;SDS011;4004;42.624;23.386;2022-12-18T11:39:49;17.27;;;12.07;;
7917;SDS011;4004;42.624;23.386;2022-12-18T11:42:24;23.83;;;11.90;;
7917;SDS011;4004;42.624;23.386;2022-12-18T11:44:58;17.57;;;11.47;;
7917;SDS011;4004;42.624;23.386;2022-12-18T11:47:28;17.20;;;12.17;;
7917;SDS011;4004;42.624;23.386;2022-12-18T11:50:09;16.40;;;11.93;;
7917;SDS011;4004;42.624;23.386;2022-12-18T11:52:40;18.23;;;10.57;;
7917;SDS011;4004;42.624;23.386;2022-12-18T11:55:10;19.60;;;11.40;;
7917;SDS011;4004;42.624;23.386;2022-12-18T11:57:42;16.00;;;11.10;;
7917;SDS011;4004;42.624;23.386;2022-12-18T12:00:18;16.07;;;10.90;;
7917;SDS011;4004;42.624;23.386;2022-12-18T12:02:56;16.47;;;10.63;;
7917;SDS011;4004;42.624;23.386;2022-12-18T12:05:58;16.27;;;11.03;;
7917;SDS011;4004;42.624;23.386;2022-12-18T12:08:37;16.40;;;11.60;;
7917;SDS011;4004;42.624;23.386;2022-12-18T12:11:13;16.87;;;11.13;;
7917;SDS011;4004;42.624;23.386;2022-12-18T12:14:01;17.33;;;11.80;;
7917;SDS011;4004;42.624;23.386;2022-12-18T12:16:41;16.13;;;11.73;;
7917;SDS011;4004;42.624;23.386;2022-12-18T12:19:18;18.07;;;11.37;;
7917;SDS011;4004;42.624;23.386;2022-12-18T12:21:58;15.83;;;10.87;;
7917;SDS011;4004;42.624;23.386;2022-12-18T12:24:36;19.33;;;11.83;;
7917;SDS011;4004;42.624;23.386;2022-12-18T12:27:17;18.73;;;11.33;;
7917;SDS011;4004;42.624;23.386;2022-12-18T12:29:56;19.23;;;12.97;;
7917;SDS011;4004;42.624;23.386;2022-12-18T12:32:32;17.77;;;12.43;;
7917;SDS011;4004;42.624;23.386;2022-12-18T12:35:14;17.20;;;12.33;;
7917;SDS011;4004;42.624;23.386;2022-12-18T12:37:53;17.73;;;12.77;;
7917;SDS011;4004;42.624;23.386;2022-12-18T12:40:27;19.93;;;12.53;;
7917;SDS011;4004;42.624;23.386;2022-12-18T12:42:56;19.70;;;13.27;;
7917;SDS011;4004;42.624;23.386;2022-12-18T12:45:41;18.60;;;11.63;;
7917;SDS011;4004;42.624;23.386;2022-12-18T12:48:15;18.03;;;11.57;;
7917;SDS011;4004;42.624;23.386;2022-12-18T12:50:45;19.97;;;12.53;;
7917;SDS011;4004;42.624;23.386;2022-12-18T12:53:14;17.00;;;12.60;;
7917;SDS011;4004;42.624;23.386;2022-12-18T12:55:47;19.57;;;12.60;;
7917;SDS011;4004;42.624;23.386;2022-12-18T12:58:15;16.87;;;11.83;;
7917;SDS011;4004;42.624;23.386;2022-12-18T13:00:50;18.07;;;13.00;;
7917;SDS011;4004;42.624;23.386;2022-12-18T13:03:27;16.63;;;12.60;;
7917;SDS011;4004;42.624;23.386;2022-12-18T13:06:02;20.90;;;13.80;;
7917;SDS011;4004;42.624;23.386;2022-12-18T13:08:50;20.00;;;12.93;;
7917;SDS011;4004;42.624;23.386;2022-12-18T13:11:28;19.33;;;13.17;;
7917;SDS011;4004;42.624;23.386;2022-12-18T13:14:21;17.97;;;11.87;;
7917;SDS011;4004;42.624;23.386;2022-12-18T13:16:52;18.47;;;12.70;;
7917;SDS011;4004;42.624;23.386;2022-12-18T13:20:04;21.20;;;12.37;;
7917;SDS011;4004;42.624;23.386;2022-12-18T13:22:37;21.40;;;14.63;;
7917;SDS011;4004;42.624;23.386;2022-12-18T13:27:59;19.83;;;13.80;;
7917;SDS011;4004;42.624;23.386;2022-12-18T13:41:48;24.10;;;14.33;;
7917;SDS011;4004;42.624;23.386;2022-12-18T13:44:22;19.97;;;14.10;;
7917;SDS011;4004;42.624;23.386;2022-12-18T13:46:52;69.30;;;39.17;;
7917;SDS011;4004;42.624;23.386;2022-12-18T13:49:22;26.93;;;15.07;;
7917;SDS011;4004;42.624;23.386;2022-12-18T13:51:52;21.63;;;15.03;;
7917;SDS011;4004;42.624;23.386;2022-12-18T13:54:22;20.80;;;14.87;;
7917;SDS011;4004;42.624;23.386;2022-12-18T13:56:55;23.13;;;14.40;;
7917;SDS011;4004;42.624;23.386;2022-12-18T13:59:22;24.27;;;14.47;;
7917;SDS011;4004;42.624;23.386;2022-12-18T14:01:51;23.13;;;14.60;;
7917;SDS011;4004;42.624;23.386;2022-12-18T14:04:22;23.17;;;14.23;;
7917;SDS011;4004;42.624;23.386;2022-12-18T14:06:53;19.83;;;14.90;;
7917;SDS011;4004;42.624;23.386;2022-12-18T14:09:24;20.67;;;14.60;;
7917;SDS011;4004;42.624;23.386;2022-12-18T14:11:53;20.67;;;14.77;;
7917;SDS011;4004;42.624;23.386;2022-12-18T14:14:43;19.20;;;13.37;;
7917;SDS011;4004;42.624;23.386;2022-12-18T14:17:12;20.50;;;13.80;;
7917;SDS011;4004;42.624;23.386;2022-12-18T14:19:44;22.77;;;14.53;;
7917;SDS011;4004;42.624;23.386;2022-12-18T14:22:14;28.60;;;14.37;;
7917;SDS011;4004;42.624;23.386;2022-12-18T14:24:42;17.37;;;13.07;;
7917;SDS011;4004;42.624;23.386;2022-12-18T14:27:13;71.93;;;49.80;;
7917;SDS011;4004;42.624;23.386;2022-12-18T14:29:48;23.47;;;15.83;;
7917;SDS011;4004;42.624;23.386;2022-12-18T14:32:16;24.37;;;13.63;;
7917;SDS011;4004;42.624;23.386;2022-12-18T14:34:47;17.73;;;12.90;;
7917;SDS011;4004;42.624;23.386;2022-12-18T14:37:15;16.47;;;12.37;;
7917;SDS011;4004;42.624;23.386;2022-12-18T14:39:53;17.83;;;12.53;;
7917;SDS011;4004;42.624;23.386;2022-12-18T14:42:23;21.97;;;12.23;;
7917;SDS011;4004;42.624;23.386;2022-12-18T14:47:53;16.20;;;10.67;;
7917;SDS011;4004;42.624;23.386;2022-12-18T14:50:22;16.37;;;10.63;;
7917;SDS011;4004;42.624;23.386;2022-12-18T14:52:49;56.63;;;38.67;;
7917;SDS011;4004;42.624;23.386;2022-12-18T14:55:16;22.97;;;16.37;;
7917;SDS011;4004;42.624;23.386;2022-12-18T14:57:44;17.73;;;11.87;;
7917;SDS011;4004;42.624;23.386;2022-12-18T15:00:14;17.93;;;11.63;;
7917;SDS011;4004;42.624;23.386;2022-12-18T15:02:44;22.57;;;11.50;;
7917;SDS011;4004;42.624;23.386;2022-12-18T15:05:17;21.83;;;11.93;;
7917;SDS011;4004;42.624;23.386;2022-12-18T15:07:48;16.43;;;11.80;;
7917;SDS011;4004;42.624;23.386;2022-12-18T15:10:17;15.53;;;10.90;;
7917;SDS011;4004;42.624;23.386;2022-12-18T15:12:46;18.33;;;10.63;;
7917;SDS011;4004;42.624;23.386;2022-12-18T15:18:18;17.10;;;11.93;;
7917;SDS011;4004;42.624;23.386;2022-12-18T15:20:47;15.93;;;11.07;;
7917;SDS011;4004;42.624;23.386;2022-12-18T15:23:20;18.53;;;11.40;;
7917;SDS011;4004;42.624;23.386;2022-12-18T15:25:48;15.80;;;11.43;;